Time;durP1;ratioP1;P1;durP2;ratioP2;P2;SDS_P1;SDS_P2;PMS_P1;PMS_P2;Temp;Humidity;BMP_temperature;BMP_pressure;BME280_temperature;BME280_humidity;BME280_pressure;Samples;Min_cycle;Max_cycle;Signal;HPM_P1;HPM_P2
2021/12/29 00:01:14;;;;;;;1.23;0.70;;;;;;;;;;5054376;28;20479;-92
2021/12/29 00:03:42;;;;;;;6.07;0.70;;;7.80;99.90;;;;;;5054176;28;20474;-91
2021/12/29 00:06:09;;;;;;;0.80;0.30;;;7.50;99.90;;;;;;5054237;28;20526;-93
2021/12/29 00:08:36;;;;;;;9.07;1.43;;;8.10;99.90;;;;;;5063963;28;20450;-91
2021/12/29 00:11:03;;;;;;;4.47;1.00;;;;;;;;;;5062066;28;20454;-93
2021/12/29 00:13:30;;;;;;;4.83;1.30;;;7.70;99.90;;;;;;5057423;28;20921;-92
2021/12/29 00:15:58;;;;;;;0.67;0.30;;;7.50;99.90;;;;;;5064693;28;20450;-92
2021/12/29 00:18:26;;;;;;;1.53;0.60;;;7.70;99.90;;;;;;5056382;28;20451;-93
2021/12/29 00:20:55;;;;;;;2.30;0.60;;;7.60;99.90;;;;;;5053212;28;20495;-91
2021/12/29 00:23:22;;;;;;;3.30;2.30;;;7.80;99.90;;;;;;5053657;28;20983;-92
2021/12/29 00:25:49;;;;;;;4.30;1.03;;;;;;;;;;5052023;28;20444;-94
2021/12/29 00:28:17;;;;;;;0.50;0.30;;;7.80;99.90;;;;;;5053518;28;20446;-91
2021/12/29 00:30:44;;;;;;;2.00;0.50;;;7.70;99.90;;;;;;5057469;28;20453;-93
2021/12/29 00:33:11;;;;;;;3.03;0.83;;;7.90;99.90;;;;;;5057353;28;20450;-91
2021/12/29 00:35:41;;;;;;;4.70;0.60;;;7.50;99.90;;;;;;5057299;28;20450;-93
2021/12/29 00:38:10;;;;;;;3.10;0.90;;;7.60;99.90;;;;;;5057563;28;20451;-91
2021/12/29 00:40:38;;;;;;;3.03;0.90;;;7.40;99.90;;;;;;5056464;28;20482;-89
2021/12/29 00:43:06;;;;;;;2.03;0.87;;;7.70;99.90;;;;;;5057453;28;20435;-91
2021/12/29 00:45:35;;;;;;;3.93;1.07;;;7.50;99.90;;;;;;5057015;28;20501;-94
2021/12/29 00:48:02;;;;;;;1.90;0.97;;;7.40;99.90;;;;;;5056961;28;20483;-92
2021/12/29 00:50:29;;;;;;;2.97;1.37;;;7.30;99.90;;;;;;5056860;28;20508;-89
2021/12/29 00:52:57;;;;;;;6.40;1.33;;;;;;;;;;5057259;28;20439;-90
2021/12/29 00:55:25;;;;;;;4.10;1.43;;;7.00;99.90;;;;;;5055844;28;20435;-91
2021/12/29 00:57:52;;;;;;;0.80;0.53;;;;;;;;;;5056497;28;20512;-91
2021/12/29 01:00:22;;;;;;;1.03;0.70;;;7.10;99.90;;;;;;5056789;28;20450;-92
2021/12/29 01:02:50;;;;;;;0.60;0.50;;;7.60;99.90;;;;;;5057028;28;20454;-90
2021/12/29 01:05:17;;;;;;;1.23;0.80;;;7.40;99.90;;;;;;5056607;28;20471;-93
2021/12/29 01:07:45;;;;;;;1.83;0.77;;;7.50;99.90;;;;;;5056541;28;20546;-92
2021/12/29 01:10:13;;;;;;;3.83;1.60;;;7.50;99.90;;;;;;5055845;28;20812;-92
2021/12/29 01:12:47;;;;;;;2.20;0.60;;;7.60;99.90;;;;;;5056515;28;20455;-91
2021/12/29 01:15:17;;;;;;;2.67;0.77;;;7.60;99.90;;;;;;5056584;28;20443;-90
2021/12/29 01:17:44;;;;;;;1.07;0.60;;;;;;;;;;5056262;28;20447;-93
2021/12/29 01:20:12;;;;;;;1.13;0.43;;;7.60;99.90;;;;;;5054904;28;20458;-91
2021/12/29 01:22:38;;;;;;;1.07;0.40;;;7.50;99.90;;;;;;5056485;28;20828;-90
2021/12/29 01:25:07;;;;;;;2.57;0.40;;;8.00;99.90;;;;;;5055507;28;20450;-92
2021/12/29 01:27:34;;;;;;;4.43;0.70;;;7.50;99.90;;;;;;5056407;28;20450;-92
2021/12/29 01:30:06;;;;;;;0.87;0.43;;;7.40;99.90;;;;;;5056292;28;20950;-91
2021/12/29 01:32:33;;;;;;;1.23;0.50;;;;;;;;;;5056259;28;20473;-92
2021/12/29 01:35:01;;;;;;;1.63;0.70;;;;;;;;;;5056594;28;20451;-91
2021/12/29 01:37:28;;;;;;;0.67;0.40;;;;;;;;;;5056598;28;20542;-91
2021/12/29 01:39:55;;;;;;;1.13;0.40;;;;;;;;;;5054730;28;20447;-90
2021/12/29 01:42:22;;;;;;;2.00;0.40;;;7.80;99.90;;;;;;5056627;28;20490;-92
2021/12/29 01:44:49;;;;;;;1.80;0.50;;;;;;;;;;5068829;28;20490;-91
2021/12/29 01:47:26;;;;;;;1.60;0.67;;;7.70;99.90;;;;;;5061007;28;20446;-90
2021/12/29 01:49:54;;;;;;;2.00;0.40;;;7.50;99.90;;;;;;5055793;28;20431;-93
2021/12/29 01:52:25;;;;;;;1.30;0.40;;;7.60;99.90;;;;;;5055965;28;20479;-89
2021/12/29 01:54:52;;;;;;;1.50;0.50;;;7.70;99.90;;;;;;5055366;28;20446;-94
2021/12/29 01:57:19;;;;;;;5.80;0.80;;;7.50;99.90;;;;;;5056065;28;20446;-91
2021/12/29 01:59:47;;;;;;;2.43;0.77;;;7.70;99.90;;;;;;5055842;28;20455;-92
2021/12/29 02:02:14;;;;;;;1.47;0.67;;;7.50;99.90;;;;;;5055706;28;20498;-93
2021/12/29 02:04:42;;;;;;;1.40;0.60;;;7.70;99.90;;;;;;5055743;28;20479;-91
2021/12/29 02:07:09;;;;;;;1.23;0.40;;;7.80;99.90;;;;;;5055901;28;20455;-91
2021/12/29 02:09:36;;;;;;;1.13;0.60;;;7.60;99.90;;;;;;5055108;28;20447;-89
2021/12/29 02:12:04;;;;;;;0.60;0.43;;;7.60;99.90;;;;;;5055793;28;20432;-92
2021/12/29 02:14:32;;;;;;;3.07;0.50;;;7.60;99.90;;;;;;5053090;28;20923;-91
2021/12/29 02:16:59;;;;;;;1.97;0.73;;;7.60;99.90;;;;;;5055855;28;20442;-91
2021/12/29 02:19:26;;;;;;;3.60;0.50;;;7.80;99.90;;;;;;5055702;28;20458;-90
2021/12/29 02:22:02;;;;;;;0.70;0.40;;;7.60;99.90;;;;;;5054996;28;20502;-90
2021/12/29 02:24:38;;;;;;;1.83;0.53;;;;;;;;;;5063772;28;20481;-91
2021/12/29 02:27:06;;;;;;;1.20;0.57;;;7.60;99.90;;;;;;5065684;28;20457;-92
2021/12/29 02:29:34;;;;;;;0.70;0.30;;;7.60;99.90;;;;;;5055176;28;20439;-92
2021/12/29 02:32:02;;;;;;;0.70;0.30;;;7.70;99.90;;;;;;5052628;28;20447;-90
2021/12/29 02:34:29;;;;;;;1.27;0.30;;;7.60;99.90;;;;;;5055174;28;20443;-91
2021/12/29 02:37:00;;;;;;;1.80;0.50;;;7.80;99.90;;;;;;5052715;28;20985;-93
2021/12/29 02:39:30;;;;;;;0.90;0.30;;;;;;;;;;5054007;28;20471;-91
2021/12/29 02:41:57;;;;;;;0.50;0.50;;;7.50;99.90;;;;;;5055134;28;20483;-92
2021/12/29 02:44:28;;;;;;;0.60;0.40;;;7.70;99.90;;;;;;5055214;28;20526;-92
2021/12/29 02:46:57;;;;;;;0.30;0.20;;;7.80;99.90;;;;;;5055084;28;20455;-92
2021/12/29 02:49:25;;;;;;;0.83;0.30;;;7.90;99.90;;;;;;5054639;28;20450;-88
2021/12/29 02:51:53;;;;;;;2.10;0.60;;;8.00;99.90;;;;;;5053864;28;20455;-93
2021/12/29 02:54:22;;;;;;;0.63;0.40;;;8.00;99.90;;;;;;5053865;28;20447;-89
2021/12/29 02:56:54;;;;;;;0.50;0.30;;;8.00;99.90;;;;;;5054883;28;20442;-92
2021/12/29 02:59:21;;;;;;;0.50;0.30;;;;;;;;;;5054644;28;20535;-91
2021/12/29 03:01:49;;;;;;;0.60;0.30;;;8.00;99.90;;;;;;5054590;28;20853;-92
2021/12/29 03:04:16;;;;;;;0.90;0.30;;;8.10;99.90;;;;;;5054690;28;20467;-93
2021/12/29 03:06:43;;;;;;;0.40;0.40;;;;;;;;;;5054472;28;20953;-93
2021/12/29 03:09:12;;;;;;;0.50;0.33;;;8.00;99.90;;;;;;5054640;28;20435;-90
2021/12/29 03:11:41;;;;;;;0.30;0.20;;;7.90;99.90;;;;;;5054572;28;20455;-92
2021/12/29 03:14:08;;;;;;;0.80;0.30;;;7.80;99.90;;;;;;5070941;28;20443;-92
2021/12/29 03:16:36;;;;;;;0.40;0.30;;;7.90;99.90;;;;;;5057997;28;20435;-91
2021/12/29 03:19:03;;;;;;;1.23;0.30;;;7.80;99.90;;;;;;5054504;28;20447;-92
2021/12/29 03:21:31;;;;;;;0.60;0.30;;;8.80;99.90;;;;;;5054488;28;20841;-92
2021/12/29 03:23:58;;;;;;;0.57;0.50;;;8.10;99.90;;;;;;5054573;28;20469;-92
2021/12/29 03:26:25;;;;;;;0.70;0.30;;;;;;;;;;5052985;28;20443;-93
2021/12/29 03:28:54;;;;;;;0.50;0.30;;;8.10;99.90;;;;;;5054565;28;20459;-87
2021/12/29 03:31:22;;;;;;;0.60;0.40;;;7.90;99.90;;;;;;5054103;28;20459;-91
2021/12/29 03:33:50;;;;;;;0.87;0.30;;;7.90;99.90;;;;;;5054409;28;20514;-91
2021/12/29 03:36:18;;;;;;;0.47;0.30;;;7.90;99.90;;;;;;5054195;28;20424;-94
2021/12/29 03:38:48;;;;;;;0.30;0.20;;;7.80;99.90;;;;;;5053829;28;20427;-92
2021/12/29 03:41:17;;;;;;;0.60;0.27;;;7.70;99.90;;;;;;5053328;28;20501;-92
2021/12/29 03:43:45;;;;;;;0.47;0.30;;;9.50;99.90;;;;;;5054178;28;20454;-92
2021/12/29 03:46:14;;;;;;;0.47;0.40;;;7.90;99.90;;;;;;5053831;28;20487;-89
2021/12/29 03:48:43;;;;;;;1.47;0.50;;;7.70;99.90;;;;;;5054067;28;20460;-92
2021/12/29 03:51:11;;;;;;;1.43;0.30;;;7.80;99.90;;;;;;5053772;28;20455;-94
2021/12/29 03:53:39;;;;;;;0.60;0.50;;;;;;;;;;5054001;28;20810;-90
2021/12/29 03:56:06;;;;;;;1.13;0.60;;;8.00;99.90;;;;;;5053035;28;20455;-90
2021/12/29 03:58:34;;;;;;;1.57;0.50;;;7.60;99.90;;;;;;5052280;28;20443;-91
2021/12/29 04:01:05;;;;;;;0.80;0.43;;;7.50;99.90;;;;;;5054069;28;20442;-94
2021/12/29 04:03:33;;;;;;;2.00;0.60;;;7.50;99.90;;;;;;5054085;28;20833;-92
2021/12/29 04:06:00;;;;;;;2.00;0.50;;;7.70;99.90;;;;;;5057580;28;20458;-94
2021/12/29 04:08:27;;;;;;;0.50;0.30;;;7.60;99.90;;;;;;5057296;28;20455;-93
2021/12/29 04:10:54;;;;;;;0.73;0.40;;;;;;;;;;5054055;28;20431;-88
2021/12/29 04:13:21;;;;;;;1.90;0.60;;;;;;;;;;5057886;28;20439;-90
2021/12/29 04:15:49;;;;;;;0.70;0.40;;;6.70;99.90;;;;;;5057549;28;20447;-91
2021/12/29 04:18:26;;;;;;;1.33;0.40;;;;;;;;;;5057840;28;20470;-92
2021/12/29 04:20:57;;;;;;;1.83;0.50;;;7.50;99.90;;;;;;5057418;28;20458;-92
2021/12/29 04:23:27;;;;;;;0.73;0.50;;;7.60;99.90;;;;;;5054916;28;20585;-92
2021/12/29 04:25:55;;;;;;;4.53;0.57;;;7.80;99.90;;;;;;5054214;28;20454;-89
2021/12/29 04:28:25;;;;;;;0.60;0.37;;;7.70;99.90;;;;;;5055013;28;20455;-93
2021/12/29 04:30:54;;;;;;;1.47;0.70;;;7.60;99.90;;;;;;5057621;28;20538;-91
2021/12/29 04:33:21;;;;;;;7.50;0.63;;;7.60;99.90;;;;;;5057308;28;20930;-89
2021/12/29 04:35:48;;;;;;;2.10;0.70;;;;;;;;;;5057245;28;20447;-93
2021/12/29 04:38:18;;;;;;;1.23;0.50;;;7.70;99.90;;;;;;5059930;28;20436;-88
2021/12/29 04:40:46;;;;;;;1.13;0.50;;;7.60;99.90;;;;;;5070631;28;20915;-88
2021/12/29 04:43:13;;;;;;;1.80;0.40;;;7.40;99.90;;;;;;5072773;28;20562;-92
2021/12/29 04:45:39;;;;;;;1.83;0.47;;;7.40;99.90;;;;;;5060809;28;20486;-92
2021/12/29 04:48:12;;;;;;;1.80;0.50;;;7.50;99.90;;;;;;5056939;28;20446;-91
2021/12/29 04:50:40;;;;;;;3.83;0.60;;;7.30;99.90;;;;;;5056804;28;20438;-91
2021/12/29 04:53:10;;;;;;;1.30;0.40;;;7.40;99.90;;;;;;5056977;28;20504;-92
2021/12/29 04:55:39;;;;;;;2.53;0.53;;;7.60;99.90;;;;;;5055717;28;20945;-91
2021/12/29 04:58:06;;;;;;;2.27;0.50;;;8.30;99.90;;;;;;5056453;28;20439;-92
2021/12/29 05:00:34;;;;;;;2.83;0.60;;;7.60;99.90;;;;;;5056590;28;20442;-90
2021/12/29 05:03:01;;;;;;;2.93;0.60;;;7.30;99.90;;;;;;5056649;28;20556;-92
2021/12/29 05:05:41;;;;;;;1.53;0.57;;;7.60;99.90;;;;;;5057006;28;20439;-92
2021/12/29 05:08:26;;;;;;;2.00;0.57;;;7.40;99.90;;;;;;5056894;28;20438;-90
2021/12/29 05:10:57;;;;;;;1.90;0.47;;;7.50;99.90;;;;;;5055997;28;20463;-91
2021/12/29 05:13:24;;;;;;;1.03;0.40;;;7.30;99.90;;;;;;5056883;28;20446;-92
2021/12/29 05:15:51;;;;;;;2.30;0.60;;;7.60;99.90;;;;;;5055692;28;20451;-93
2021/12/29 05:18:19;;;;;;;1.57;0.60;;;;;;;;;;5056509;28;20439;-88
2021/12/29 05:20:46;;;;;;;2.43;0.70;;;7.30;99.90;;;;;;5056155;28;20451;-93
2021/12/29 05:23:13;;;;;;;1.50;0.40;;;;;;;;;;5056194;28;20889;-90
2021/12/29 05:25:40;;;;;;;3.47;0.50;;;;;;;;;;5055428;28;20451;-90
2021/12/29 05:28:08;;;;;;;1.27;0.53;;;7.10;99.90;;;;;;5056465;28;20796;-92
2021/12/29 05:30:36;;;;;;;3.47;1.00;;;7.60;99.90;;;;;;5056459;28;20794;-91
2021/12/29 05:33:03;;;;;;;2.77;0.70;;;;;;;;;;5056605;28;20443;-90
2021/12/29 05:35:30;;;;;;;1.07;0.57;;;7.30;99.90;;;;;;5056342;28;20450;-92
2021/12/29 05:37:57;;;;;;;0.83;0.50;;;7.50;99.90;;;;;;5056356;28;20450;-91
2021/12/29 05:40:26;;;;;;;4.33;0.50;;;7.30;99.90;;;;;;5055367;28;20443;-92
2021/12/29 05:42:57;;;;;;;1.33;0.53;;;7.30;99.90;;;;;;5049902;28;20547;-89
2021/12/29 05:45:27;;;;;;;0.60;0.50;;;7.30;99.90;;;;;;5053061;28;20479;-91
2021/12/29 05:48:03;;;;;;;2.50;1.07;;;7.80;99.90;;;;;;5045413;28;20456;-91
2021/12/29 05:50:32;;;;;;;5.03;1.10;;;7.30;99.90;;;;;;5045819;28;20526;-93
2021/12/29 05:53:00;;;;;;;4.00;0.70;;;7.40;99.90;;;;;;5055589;28;20459;-92
2021/12/29 05:55:28;;;;;;;1.40;0.33;;;7.30;99.90;;;;;;5042871;28;20473;-92
2021/12/29 05:57:55;;;;;;;0.80;0.50;;;;;;;;;;5046477;28;20444;-91
2021/12/29 06:00:37;;;;;;;1.03;0.50;;;7.40;99.90;;;;;;5055708;28;20458;-92
2021/12/29 06:03:04;;;;;;;0.90;0.50;;;7.50;99.90;;;;;;5043277;28;20491;-92
2021/12/29 06:05:31;;;;;;;2.67;0.63;;;7.50;99.90;;;;;;5054343;28;20450;-92
2021/12/29 06:07:58;;;;;;;1.57;0.50;;;;;;;;;;5044408;28;20448;-92
2021/12/29 06:10:25;;;;;;;1.07;0.43;;;;;;;;;;5044775;28;20448;-88
2021/12/29 06:12:52;;;;;;;2.10;0.70;;;;;;;;;;5056084;28;20452;-90
2021/12/29 06:15:19;;;;;;;1.20;0.60;;;7.50;99.90;;;;;;5054363;28;20946;-90
2021/12/29 06:17:49;;;;;;;4.67;0.60;;;7.30;99.90;;;;;;5049628;28;20452;-90
2021/12/29 06:20:16;;;;;;;1.67;0.60;;;;;;;;;;5043310;28;20507;-88
2021/12/29 06:22:44;;;;;;;1.03;0.50;;;;;;;;;;5045041;28;20497;-88
2021/12/29 06:25:13;;;;;;;1.67;0.70;;;7.50;99.90;;;;;;5048690;28;20459;-91
2021/12/29 06:27:41;;;;;;;1.00;0.60;;;7.40;99.90;;;;;;5047866;28;20443;-89
2021/12/29 06:30:11;;;;;;;0.90;0.50;;;7.20;99.90;;;;;;5044977;28;20454;-88
2021/12/29 06:32:39;;;;;;;7.03;0.60;;;7.20;99.90;;;;;;5047461;28;20454;-91
2021/12/29 06:35:10;;;;;;;1.80;0.67;;;7.80;99.90;;;;;;5040071;28;20573;-89
2021/12/29 06:37:37;;;;;;;2.23;0.70;;;;;;;;;;5046625;28;20443;-91
2021/12/29 06:40:05;;;;;;;2.20;0.40;;;7.20;99.90;;;;;;5052858;28;20462;-89
2021/12/29 06:42:32;;;;;;;1.40;0.77;;;;;;;;;;5053866;28;20494;-89
2021/12/29 06:44:59;;;;;;;2.53;0.87;;;;;;;;;;5053549;28;21070;-89
2021/12/29 06:47:27;;;;;;;2.63;0.97;;;7.20;99.90;;;;;;5054003;28;20455;-88
2021/12/29 06:49:54;;;;;;;1.47;0.50;;;;;;;;;;5054296;28;20514;-90
2021/12/29 06:52:23;;;;;;;2.73;0.60;;;7.50;99.90;;;;;;5054237;28;20451;-89
2021/12/29 06:54:50;;;;;;;3.23;0.50;;;;;;;;;;5057798;28;20450;-88
2021/12/29 06:57:18;;;;;;;2.43;0.43;;;;;;;;;;5060763;28;20439;-90
2021/12/29 06:59:45;;;;;;;0.70;0.43;;;;;;;;;;5054048;28;20452;-90
2021/12/29 07:02:14;;;;;;;0.50;0.30;;;;;;;;;;5049116;28;20543;-91
2021/12/29 07:04:45;;;;;;;2.60;0.67;;;7.40;99.90;;;;;;5053910;28;20490;-88
2021/12/29 07:07:12;;;;;;;1.10;0.50;;;7.40;99.90;;;;;;5054391;28;20524;-88
2021/12/29 07:09:40;;;;;;;1.37;0.47;;;7.20;99.90;;;;;;5052757;28;20439;-91
2021/12/29 07:12:08;;;;;;;2.60;0.90;;;6.90;99.90;;;;;;5053768;28;20998;-90
2021/12/29 07:14:38;;;;;;;2.40;0.80;;;;;;;;;;5053632;28;20459;-90
2021/12/29 07:17:05;;;;;;;1.47;0.53;;;;;;;;;;5054020;28;20501;-92
2021/12/29 07:19:32;;;;;;;2.17;0.70;;;;;;;;;;5054137;28;20459;-90
2021/12/29 07:22:02;;;;;;;0.80;0.40;;;;;;;;;;5052646;28;20474;-90
2021/12/29 07:24:29;;;;;;;1.60;0.60;;;;;;;;;;5052610;28;20951;-89
2021/12/29 07:26:57;;;;;;;1.43;0.60;;;7.40;99.90;;;;;;5054094;28;20955;-88
2021/12/29 07:29:24;;;;;;;2.20;0.50;;;;;;;;;;5050576;28;20454;-88
2021/12/29 07:31:53;;;;;;;2.10;0.47;;;;;;;;;;5053598;28;20451;-88
2021/12/29 07:34:21;;;;;;;2.00;0.57;;;7.40;99.90;;;;;;5053499;28;20459;-88
2021/12/29 07:36:48;;;;;;;9.33;1.60;;;;;;;;;;5054023;28;20451;-91
2021/12/29 07:39:15;;;;;;;0.70;0.40;;;;;;;;;;5055273;28;20816;-87
2021/12/29 07:41:43;;;;;;;1.70;0.50;;;;;;;;;;5059873;28;20939;-87
2021/12/29 07:44:13;;;;;;;1.70;0.50;;;7.30;99.90;;;;;;5053560;28;20505;-88
2021/12/29 07:46:42;;;;;;;1.37;0.50;;;7.30;99.90;;;;;;5053390;28;20461;-89
2021/12/29 07:49:09;;;;;;;0.80;0.43;;;;;;;;;;5052959;28;20505;-87
2021/12/29 07:51:36;;;;;;;0.53;0.40;;;;;;;;;;5053433;28;20466;-88
2021/12/29 07:54:03;;;;;;;1.10;0.53;;;;;;;;;;5054602;28;20463;-88
2021/12/29 07:56:30;;;;;;;1.57;1.00;;;;;;;;;;5052517;28;20535;-92
2021/12/29 07:58:57;;;;;;;1.90;0.70;;;;;;;;;;5053472;28;20979;-88
2021/12/29 08:01:26;;;;;;;1.90;0.97;;;7.50;99.90;;;;;;5053398;28;20977;-87
2021/12/29 08:03:53;;;;;;;3.20;1.00;;;;;;;;;;5053139;28;20484;-88
2021/12/29 08:09:31;;;;;;;2.47;0.80;;;7.60;99.90;;;;;;5054315;28;20505;-92
2021/12/29 08:12:14;;;;;;;3.60;0.77;;;7.70;99.90;;;;;;5052009;28;20447;-90
2021/12/29 08:14:42;;;;;;;2.57;0.63;;;;;;;;;;5034748;28;20530;-90
2021/12/29 08:17:12;;;;;;;4.50;0.70;;;7.60;99.90;;;;;;5033422;28;20455;-86
2021/12/29 08:19:39;;;;;;;1.47;0.70;;;;;;;;;;5034434;28;20511;-86
2021/12/29 08:22:08;;;;;;;0.50;0.40;;;7.60;99.90;;;;;;5038593;28;20531;-91
2021/12/29 08:24:37;;;;;;;2.70;0.70;;;;;;;;;;5046654;28;20483;-90
2021/12/29 08:27:06;;;;;;;2.57;0.80;;;7.90;99.90;;;;;;5048159;28;20474;-89
2021/12/29 08:29:33;;;;;;;1.57;0.70;;;;;;;;;;5045448;28;20435;-90
2021/12/29 08:32:00;;;;;;;1.80;0.53;;;;;;;;;;5053006;28;20443;-89
2021/12/29 08:34:30;;;;;;;1.70;0.47;;;7.60;99.90;;;;;;5052742;28;20627;-90
2021/12/29 08:36:57;;;;;;;0.87;0.40;;;;;;;;;;5051529;28;20459;-87
2021/12/29 08:39:25;;;;;;;1.80;0.70;;;8.00;99.90;;;;;;5052994;28;20474;-90
2021/12/29 08:41:53;;;;;;;1.63;0.93;;;;;;;;;;5053325;28;20454;-88
2021/12/29 08:44:20;;;;;;;0.90;0.73;;;7.60;99.90;;;;;;5052600;28;21012;-89
2021/12/29 08:46:47;;;;;;;1.83;0.90;;;7.60;99.90;;;;;;5050156;28;20451;-89
2021/12/29 08:49:15;;;;;;;3.33;0.80;;;7.70;99.90;;;;;;5053138;28;20459;-87
2021/12/29 08:51:43;;;;;;;2.80;1.10;;;8.00;99.90;;;;;;5056279;28;20464;-91
2021/12/29 08:54:10;;;;;;;2.60;0.70;;;;;;;;;;5056490;28;20501;-89
2021/12/29 08:56:37;;;;;;;1.90;0.93;;;7.70;99.90;;;;;;5055487;28;20443;-89
2021/12/29 08:59:05;;;;;;;2.33;0.70;;;;;;;;;;5055796;28;20978;-87
2021/12/29 09:01:32;;;;;;;2.00;0.70;;;7.70;99.90;;;;;;5055884;28;20475;-89
2021/12/29 09:03:59;;;;;;;3.97;0.77;;;;;;;;;;5056120;28;20498;-89
2021/12/29 09:06:26;;;;;;;4.90;1.20;;;;;;;;;;5055852;28;20451;-91
2021/12/29 09:08:55;;;;;;;1.37;1.10;;;8.00;99.90;;;;;;5060255;28;20513;-86
2021/12/29 09:11:22;;;;;;;3.40;0.90;;;7.90;99.90;;;;;;5063724;28;20454;-88
2021/12/29 09:13:49;;;;;;;3.70;1.30;;;8.30;99.90;;;;;;5056390;28;20962;-87
2021/12/29 09:16:16;;;;;;;1.13;0.80;;;7.80;99.90;;;;;;5055565;28;20447;-88
2021/12/29 09:18:43;;;;;;;1.20;0.80;;;;;;;;;;5055824;28;20550;-88
2021/12/29 09:21:12;;;;;;;1.10;0.60;;;8.00;99.90;;;;;;5055530;28;20454;-89
2021/12/29 09:23:40;;;;;;;1.57;0.50;;;8.50;99.90;;;;;;5055818;28;20502;-87
2021/12/29 09:26:09;;;;;;;2.40;0.80;;;8.60;99.90;;;;;;5054812;28;20456;-87
2021/12/29 09:28:37;;;;;;;2.00;0.83;;;;;;;;;;5056188;28;20451;-89
2021/12/29 09:31:04;;;;;;;1.83;0.70;;;;;;;;;;5045965;28;20932;-90
2021/12/29 09:33:31;;;;;;;2.67;0.70;;;;;;;;;;5035876;28;20451;-89
2021/12/29 09:36:02;;;;;;;2.30;0.83;;;;;;;;;;5034439;28;20587;-94
2021/12/29 09:38:31;;;;;;;0.90;0.70;;;8.50;99.90;;;;;;5035701;28;20462;-90
2021/12/29 09:40:58;;;;;;;1.30;0.70;;;8.10;99.90;;;;;;5034672;28;20464;-92
2021/12/29 09:43:26;;;;;;;3.33;1.07;;;8.40;99.90;;;;;;5036502;28;20495;-94
2021/12/29 09:45:54;;;;;;;1.03;0.87;;;;;;;;;;5034619;28;20476;-90
2021/12/29 09:48:22;;;;;;;2.43;0.80;;;8.50;99.90;;;;;;5037000;28;20455;-88
2021/12/29 09:50:50;;;;;;;8.33;0.80;;;8.40;99.90;;;;;;5036826;28;20452;-89
2021/12/29 09:53:21;;;;;;;2.30;0.83;;;8.60;99.90;;;;;;5036141;28;20944;-91
2021/12/29 09:55:49;;;;;;;2.27;1.03;;;;;;;;;;5035968;28;20463;-90
2021/12/29 09:58:17;;;;;;;2.00;0.80;;;8.70;99.90;;;;;;5037800;28;20455;-90
2021/12/29 10:00:50;;;;;;;2.97;1.00;;;8.70;99.90;;;;;;5037598;28;20472;-88
2021/12/29 10:03:20;;;;;;;2.93;0.77;;;8.80;99.90;;;;;;5038054;28;20826;-89
2021/12/29 10:05:48;;;;;;;1.90;1.20;;;8.80;99.90;;;;;;5035851;28;20453;-92
2021/12/29 10:08:17;;;;;;;4.53;1.23;;;9.00;99.90;;;;;;5037184;28;20437;-90
2021/12/29 10:10:48;;;;;;;4.10;1.60;;;8.80;99.90;;;;;;5034414;28;20436;-89
2021/12/29 10:13:16;;;;;;;1.73;0.90;;;8.70;99.90;;;;;;5036089;28;20458;-88
2021/12/29 10:15:46;;;;;;;1.93;1.10;;;8.80;99.90;;;;;;5036840;28;20448;-91
2021/12/29 10:18:17;;;;;;;1.93;0.90;;;8.70;99.90;;;;;;5037904;28;20910;-87
2021/12/29 10:20:46;;;;;;;1.60;0.83;;;8.60;99.90;;;;;;5038217;28;20451;-91
2021/12/29 10:23:23;;;;;;;4.27;1.40;;;8.80;99.90;;;;;;5037794;28;21044;-93
2021/12/29 10:25:51;;;;;;;1.40;0.70;;;8.80;99.90;;;;;;5035727;28;20460;-92
2021/12/29 10:28:24;;;;;;;1.80;1.67;;;8.80;99.90;;;;;;5045972;28;20451;-93
2021/12/29 10:30:58;;;;;;;6.63;6.10;;;8.70;99.90;;;;;;5054506;28;20457;-91
2021/12/29 10:33:34;;;;;;;2.60;2.13;;;9.00;99.90;;;;;;5057492;28;20466;-89
2021/12/29 10:36:15;;;;;;;2.50;1.70;;;9.00;99.90;;;;;;5055301;28;20443;-89
2021/12/29 10:38:46;;;;;;;2.00;1.80;;;9.10;99.90;;;;;;5057223;28;20455;-89
2021/12/29 10:41:13;;;;;;;2.47;0.90;;;;;;;;;;5061272;28;20852;-89
2021/12/29 10:43:50;;;;;;;2.07;1.00;;;9.00;99.90;;;;;;5056116;28;20450;-91
2021/12/29 10:46:26;;;;;;;3.93;0.97;;;9.00;99.90;;;;;;5053879;28;20488;-91
2021/12/29 10:48:55;;;;;;;3.03;0.80;;;9.00;99.90;;;;;;5054208;28;20451;-89
2021/12/29 10:51:30;;;;;;;3.30;1.07;;;8.90;99.90;;;;;;5056152;28;20459;-93
2021/12/29 10:54:08;;;;;;;1.30;0.60;;;8.90;99.90;;;;;;5055091;28;20458;-92
2021/12/29 10:56:37;;;;;;;5.60;1.43;;;8.90;99.90;;;;;;5053905;28;20455;-90
2021/12/29 10:59:28;;;;;;;0.80;0.70;;;9.00;99.90;;;;;;5053876;28;20456;-94
2021/12/29 11:01:56;;;;;;;1.40;0.83;;;9.00;99.90;;;;;;5053861;28;20454;-91
2021/12/29 11:04:25;;;;;;;6.23;1.27;;;9.30;99.90;;;;;;5053775;28;20499;-90
2021/12/29 11:06:56;;;;;;;1.40;0.83;;;9.00;99.90;;;;;;5054096;28;20459;-91
2021/12/29 11:09:26;;;;;;;2.20;0.77;;;9.30;99.90;;;;;;5053220;28;20455;-89
2021/12/29 11:11:53;;;;;;;2.50;1.40;;;;;;;;;;5054346;28;20450;-91
2021/12/29 11:14:25;;;;;;;1.07;0.40;;;9.00;99.90;;;;;;5053589;28;20450;-90
2021/12/29 11:17:04;;;;;;;1.57;0.63;;;9.20;99.90;;;;;;5053435;28;20438;-92
2021/12/29 11:19:32;;;;;;;3.90;1.00;;;;;;;;;;5055065;28;20454;-91
2021/12/29 11:22:12;;;;;;;2.00;0.90;;;8.90;99.90;;;;;;5055002;28;20459;-91
2021/12/29 11:24:41;;;;;;;3.03;0.87;;;8.80;99.90;;;;;;5053820;28;20483;-94
2021/12/29 11:27:13;;;;;;;1.47;0.60;;;8.60;99.90;;;;;;5065094;28;20447;-90
2021/12/29 11:29:52;;;;;;;2.57;0.97;;;8.80;99.90;;;;;;5057813;28;20523;-90
2021/12/29 11:32:24;;;;;;;2.70;0.87;;;8.60;99.90;;;;;;5054792;28;20457;-95
2021/12/29 11:35:08;;;;;;;1.53;1.00;;;8.70;99.90;;;;;;5053378;28;20870;-92
2021/12/29 11:37:36;;;;;;;4.03;1.20;;;8.80;99.90;;;;;;5053610;28;20450;-89
2021/12/29 11:40:04;;;;;;;1.10;0.50;;;8.90;99.90;;;;;;5052609;28;20453;-89
2021/12/29 11:42:31;;;;;;;1.90;0.80;;;;;;;;;;5054553;28;20450;-92
2021/12/29 11:44:58;;;;;;;1.00;0.77;;;8.60;99.90;;;;;;5053315;28;20598;-88
2021/12/29 11:47:27;;;;;;;2.47;0.73;;;8.90;99.90;;;;;;5054940;28;20458;-93
2021/12/29 11:49:54;;;;;;;2.47;0.73;;;;;;;;;;5054599;28;20451;-91
2021/12/29 11:52:35;;;;;;;1.97;0.90;;;8.70;99.90;;;;;;5052213;28;20454;-92
2021/12/29 11:55:09;;;;;;;3.47;0.93;;;8.70;99.90;;;;;;5052410;28;20454;-90
2021/12/29 11:57:37;;;;;;;3.33;0.93;;;8.80;99.90;;;;;;5053396;28;20458;-91
2021/12/29 12:00:12;;;;;;;3.50;1.17;;;8.70;99.90;;;;;;5053164;28;20471;-91
2021/12/29 12:02:42;;;;;;;2.03;1.17;;;8.80;99.90;;;;;;5053918;28;20934;-90
2021/12/29 12:05:10;;;;;;;1.70;0.90;;;9.00;99.90;;;;;;5053690;28;20857;-90
2021/12/29 12:07:38;;;;;;;1.90;0.73;;;9.00;99.90;;;;;;5054451;28;20455;-92
2021/12/29 12:10:11;;;;;;;3.73;1.90;;;9.00;99.90;;;;;;5053317;28;20455;-90
2021/12/29 12:12:42;;;;;;;2.50;1.40;;;8.70;99.90;;;;;;5053883;28;20501;-88
2021/12/29 12:15:11;;;;;;;3.17;0.83;;;8.90;99.90;;;;;;5053313;28;20443;-88
2021/12/29 12:17:41;;;;;;;2.70;1.20;;;8.90;99.90;;;;;;5053667;28;20450;-90
2021/12/29 12:20:10;;;;;;;2.77;1.00;;;9.10;99.90;;;;;;5054027;28;20439;-90
2021/12/29 12:22:46;;;;;;;1.80;1.00;;;9.10;99.90;;;;;;5053691;28;20455;-91
2021/12/29 12:25:19;;;;;;;4.17;1.23;;;9.30;99.90;;;;;;5056154;28;21024;-90
2021/12/29 12:27:48;;;;;;;2.40;1.23;;;9.20;99.90;;;;;;5057600;28;20478;-90
2021/12/29 12:30:18;;;;;;;2.17;0.83;;;9.20;99.90;;;;;;5057675;28;20465;-92
2021/12/29 12:32:50;;;;;;;4.70;2.00;;;9.00;99.90;;;;;;5056176;28;20463;-90
2021/12/29 12:35:28;;;;;;;6.60;1.80;;;9.10;99.90;;;;;;5056833;28;20443;-91
2021/12/29 12:37:57;;;;;;;8.07;2.07;;;9.20;99.90;;;;;;5057063;28;20804;-91
2021/12/29 12:40:28;;;;;;;4.97;1.43;;;9.00;99.90;;;;;;5056514;28;20459;-94
2021/12/29 12:43:01;;;;;;;6.77;1.50;;;9.10;99.90;;;;;;5057345;28;20459;-91
2021/12/29 12:45:33;;;;;;;2.20;0.90;;;9.20;99.90;;;;;;5057253;28;20494;-91
2021/12/29 12:48:08;;;;;;;2.90;1.00;;;9.00;99.90;;;;;;5057979;28;20939;-92
2021/12/29 12:50:36;;;;;;;6.00;1.20;;;9.10;99.90;;;;;;5057476;28;20471;-90
2021/12/29 12:53:04;;;;;;;7.43;1.90;;;9.10;99.90;;;;;;5056277;28;20447;-91
2021/12/29 12:55:42;;;;;;;11.03;2.33;;;9.20;99.90;;;;;;5055930;28;20454;-90
2021/12/29 12:58:11;;;;;;;1.77;1.17;;;9.10;99.90;;;;;;5057397;28;20820;-87
2021/12/29 13:00:44;;;;;;;2.00;1.13;;;9.10;99.90;;;;;;5056813;28;20452;-88
2021/12/29 13:03:16;;;;;;;6.83;3.53;;;8.60;99.90;;;;;;5055595;28;20439;-87
2021/12/29 13:05:45;;;;;;;6.83;2.27;;;9.20;99.90;;;;;;5055951;28;20944;-87
2021/12/29 13:08:15;;;;;;;7.17;2.13;;;9.20;99.90;;;;;;5055680;28;20838;-88
2021/12/29 13:10:45;;;;;;;6.17;2.30;;;9.10;99.90;;;;;;5054391;28;20792;-86
2021/12/29 13:13:17;;;;;;;9.70;2.03;;;9.30;99.90;;;;;;5055685;28;20473;-87
2021/12/29 13:15:47;;;;;;;4.70;1.33;;;9.30;99.90;;;;;;5055674;28;20797;-87
2021/12/29 13:18:16;;;;;;;4.53;1.40;;;9.20;99.90;;;;;;5056107;28;20470;-87
2021/12/29 13:20:45;;;;;;;4.63;1.43;;;9.60;99.90;;;;;;5055869;28;20457;-91
2021/12/29 13:23:15;;;;;;;3.20;1.60;;;9.20;99.90;;;;;;5056023;28;20516;-91
2021/12/29 13:25:43;;;;;;;5.53;1.90;;;9.30;99.90;;;;;;5055301;28;20488;-90
2021/12/29 13:28:13;;;;;;;5.30;2.17;;;9.30;99.90;;;;;;5058365;28;20480;-91
2021/12/29 13:30:45;;;;;;;2.13;1.87;;;9.10;99.90;;;;;;5066067;28;20439;-91
2021/12/29 13:33:13;;;;;;;7.77;1.70;;;9.20;99.90;;;;;;5080557;28;20445;-90